sensor_id;sensor_type;location;lat;lon;timestamp;P1;durP1;ratioP1;P2;durP2;ratioP2
32152;SDS011;18656;50.580;11.392;2022-12-07T00:01:50;7.30;;;4.35;;
32152;SDS011;18656;50.580;11.392;2022-12-07T00:04:17;5.70;;;4.22;;
32152;SDS011;18656;50.580;11.392;2022-12-07T00:06:46;5.68;;;4.30;;
32152;SDS011;18656;50.580;11.392;2022-12-07T00:09:14;5.18;;;4.47;;
32152;SDS011;18656;50.580;11.392;2022-12-07T00:11:41;6.30;;;3.90;;
32152;SDS011;18656;50.580;11.392;2022-12-07T00:14:13;4.00;;;3.70;;
32152;SDS011;18656;50.580;11.392;2022-12-07T00:16:41;4.25;;;3.90;;
32152;SDS011;18656;50.580;11.392;2022-12-07T00:19:09;5.38;;;4.50;;
32152;SDS011;18656;50.580;11.392;2022-12-07T00:21:36;5.28;;;3.72;;
32152;SDS011;18656;50.580;11.392;2022-12-07T00:24:04;5.57;;;3.55;;
32152;SDS011;18656;50.580;11.392;2022-12-07T00:26:36;5.65;;;4.13;;
32152;SDS011;18656;50.580;11.392;2022-12-07T00:29:05;4.22;;;3.85;;
32152;SDS011;18656;50.580;11.392;2022-12-07T00:31:33;4.30;;;3.80;;
32152;SDS011;18656;50.580;11.392;2022-12-07T00:34:06;4.05;;;3.65;;
32152;SDS011;18656;50.580;11.392;2022-12-07T00:36:33;3.63;;;3.33;;
32152;SDS011;18656;50.580;11.392;2022-12-07T00:39:00;3.67;;;3.38;;
32152;SDS011;18656;50.580;11.392;2022-12-07T00:41:29;5.78;;;3.63;;
32152;SDS011;18656;50.580;11.392;2022-12-07T00:43:57;6.57;;;4.47;;
32152;SDS011;18656;50.580;11.392;2022-12-07T00:46:24;6.43;;;3.72;;
32152;SDS011;18656;50.580;11.392;2022-12-07T00:48:52;5.00;;;3.88;;
32152;SDS011;18656;50.580;11.392;2022-12-07T00:51:20;6.03;;;3.78;;
32152;SDS011;18656;50.580;11.392;2022-12-07T00:53:48;5.60;;;3.53;;
32152;SDS011;18656;50.580;11.392;2022-12-07T00:56:20;4.35;;;3.67;;
32152;SDS011;18656;50.580;11.392;2022-12-07T00:58:55;3.83;;;2.75;;
32152;SDS011;18656;50.580;11.392;2022-12-07T01:01:23;3.55;;;3.25;;
32152;SDS011;18656;50.580;11.392;2022-12-07T01:03:51;4.88;;;3.90;;
32152;SDS011;18656;50.580;11.392;2022-12-07T01:06:19;3.85;;;3.47;;
32152;SDS011;18656;50.580;11.392;2022-12-07T01:08:47;4.38;;;3.63;;
32152;SDS011;18656;50.580;11.392;2022-12-07T01:11:16;3.50;;;3.20;;
32152;SDS011;18656;50.580;11.392;2022-12-07T01:13:44;4.13;;;3.70;;
32152;SDS011;18656;50.580;11.392;2022-12-07T01:16:13;4.47;;;3.55;;
32152;SDS011;18656;50.580;11.392;2022-12-07T01:18:41;5.80;;;3.58;;
32152;SDS011;18656;50.580;11.392;2022-12-07T01:21:09;3.50;;;3.10;;
32152;SDS011;18656;50.580;11.392;2022-12-07T01:23:38;3.83;;;3.53;;
32152;SDS011;18656;50.580;11.392;2022-12-07T01:26:07;5.15;;;3.42;;
32152;SDS011;18656;50.580;11.392;2022-12-07T01:28:35;3.58;;;3.13;;
32152;SDS011;18656;50.580;11.392;2022-12-07T01:31:03;3.70;;;3.10;;
32152;SDS011;18656;50.580;11.392;2022-12-07T01:33:32;4.25;;;3.58;;
32152;SDS011;18656;50.580;11.392;2022-12-07T01:36:04;5.35;;;3.60;;
32152;SDS011;18656;50.580;11.392;2022-12-07T01:38:32;4.20;;;3.80;;
32152;SDS011;18656;50.580;11.392;2022-12-07T01:41:00;3.80;;;3.40;;
32152;SDS011;18656;50.580;11.392;2022-12-07T01:43:28;4.05;;;3.70;;
32152;SDS011;18656;50.580;11.392;2022-12-07T01:45:56;4.13;;;3.45;;
32152;SDS011;18656;50.580;11.392;2022-12-07T01:48:26;5.55;;;4.40;;
32152;SDS011;18656;50.580;11.392;2022-12-07T01:50:54;7.72;;;4.80;;
32152;SDS011;18656;50.580;11.392;2022-12-07T01:53:24;5.07;;;4.18;;
32152;SDS011;18656;50.580;11.392;2022-12-07T01:55:52;6.38;;;4.60;;
32152;SDS011;18656;50.580;11.392;2022-12-07T01:58:20;6.55;;;5.03;;
32152;SDS011;18656;50.580;11.392;2022-12-07T02:00:47;6.15;;;4.80;;
32152;SDS011;18656;50.580;11.392;2022-12-07T02:03:22;11.13;;;5.55;;
32152;SDS011;18656;50.580;11.392;2022-12-07T02:05:51;6.20;;;4.95;;
32152;SDS011;18656;50.580;11.392;2022-12-07T02:08:20;5.43;;;4.85;;
32152;SDS011;18656;50.580;11.392;2022-12-07T02:10:48;4.07;;;3.70;;
32152;SDS011;18656;50.580;11.392;2022-12-07T02:13:17;4.43;;;3.30;;
32152;SDS011;18656;50.580;11.392;2022-12-07T02:29:25;4.45;;;4.05;;
32152;SDS011;18656;50.580;11.392;2022-12-07T02:31:48;7.03;;;4.55;;
32152;SDS011;18656;50.580;11.392;2022-12-07T02:34:20;6.13;;;4.88;;
32152;SDS011;18656;50.580;11.392;2022-12-07T02:36:51;9.50;;;5.72;;
32152;SDS011;18656;50.580;11.392;2022-12-07T02:39:23;7.57;;;5.10;;
32152;SDS011;18656;50.580;11.392;2022-12-07T02:41:53;6.75;;;4.60;;
32152;SDS011;18656;50.580;11.392;2022-12-07T02:44:24;7.05;;;5.20;;
32152;SDS011;18656;50.580;11.392;2022-12-07T02:47:07;6.28;;;4.90;;
32152;SDS011;18656;50.580;11.392;2022-12-07T02:49:36;8.32;;;5.07;;
32152;SDS011;18656;50.580;11.392;2022-12-07T02:52:05;11.20;;;5.47;;
32152;SDS011;18656;50.580;11.392;2022-12-07T02:54:32;6.95;;;5.35;;
32152;SDS011;18656;50.580;11.392;2022-12-07T02:57:02;8.10;;;5.00;;
32152;SDS011;18656;50.580;11.392;2022-12-07T03:07:34;8.15;;;5.90;;
32152;SDS011;18656;50.580;11.392;2022-12-07T03:10:22;6.45;;;5.28;;
32152;SDS011;18656;50.580;11.392;2022-12-07T03:15:26;5.13;;;4.43;;
32152;SDS011;18656;50.580;11.392;2022-12-07T03:17:56;8.02;;;5.13;;
32152;SDS011;18656;50.580;11.392;2022-12-07T03:20:25;7.95;;;5.60;;
32152;SDS011;18656;50.580;11.392;2022-12-07T03:22:53;7.45;;;5.85;;
32152;SDS011;18656;50.580;11.392;2022-12-07T03:25:21;9.15;;;5.72;;
32152;SDS011;18656;50.580;11.392;2022-12-07T03:27:53;9.07;;;6.40;;
32152;SDS011;18656;50.580;11.392;2022-12-07T03:30:29;9.95;;;6.78;;
32152;SDS011;18656;50.580;11.392;2022-12-07T03:38:00;11.05;;;7.10;;
32152;SDS011;18656;50.580;11.392;2022-12-07T03:40:37;13.38;;;6.95;;
32152;SDS011;18656;50.580;11.392;2022-12-07T03:43:06;14.38;;;7.90;;
32152;SDS011;18656;50.580;11.392;2022-12-07T03:45:42;16.60;;;7.82;;
32152;SDS011;18656;50.580;11.392;2022-12-07T03:48:20;16.08;;;7.57;;
32152;SDS011;18656;50.580;11.392;2022-12-07T03:51:05;17.55;;;7.70;;
32152;SDS011;18656;50.580;11.392;2022-12-07T03:56:01;13.85;;;7.32;;
32152;SDS011;18656;50.580;11.392;2022-12-07T03:58:29;9.57;;;6.70;;
32152;SDS011;18656;50.580;11.392;2022-12-07T04:00:57;12.43;;;7.18;;
32152;SDS011;18656;50.580;11.392;2022-12-07T04:03:24;9.30;;;6.85;;
32152;SDS011;18656;50.580;11.392;2022-12-07T04:05:51;12.93;;;7.53;;
32152;SDS011;18656;50.580;11.392;2022-12-07T04:08:19;12.55;;;7.22;;
32152;SDS011;18656;50.580;11.392;2022-12-07T04:10:46;12.32;;;6.70;;
32152;SDS011;18656;50.580;11.392;2022-12-07T04:13:13;9.43;;;6.78;;
32152;SDS011;18656;50.580;11.392;2022-12-07T04:15:41;10.32;;;6.70;;
32152;SDS011;18656;50.580;11.392;2022-12-07T04:18:08;17.13;;;7.30;;
32152;SDS011;18656;50.580;11.392;2022-12-07T04:20:36;11.15;;;6.72;;
32152;SDS011;18656;50.580;11.392;2022-12-07T04:23:03;12.18;;;7.20;;
32152;SDS011;18656;50.580;11.392;2022-12-07T04:25:30;14.65;;;6.78;;
32152;SDS011;18656;50.580;11.392;2022-12-07T04:27:57;8.85;;;6.03;;
32152;SDS011;18656;50.580;11.392;2022-12-07T04:30:25;9.52;;;6.60;;
32152;SDS011;18656;50.580;11.392;2022-12-07T04:32:52;9.10;;;6.53;;
32152;SDS011;18656;50.580;11.392;2022-12-07T04:35:19;7.38;;;6.10;;
32152;SDS011;18656;50.580;11.392;2022-12-07T04:37:47;11.05;;;6.50;;
32152;SDS011;18656;50.580;11.392;2022-12-07T04:40:14;16.65;;;6.90;;
32152;SDS011;18656;50.580;11.392;2022-12-07T04:42:41;12.88;;;7.20;;
32152;SDS011;18656;50.580;11.392;2022-12-07T04:45:09;12.02;;;6.93;;
32152;SDS011;18656;50.580;11.392;2022-12-07T04:47:36;14.38;;;8.02;;
32152;SDS011;18656;50.580;11.392;2022-12-07T04:50:04;9.82;;;6.85;;
32152;SDS011;18656;50.580;11.392;2022-12-07T04:52:31;9.90;;;6.25;;
32152;SDS011;18656;50.580;11.392;2022-12-07T04:54:59;11.68;;;7.85;;
32152;SDS011;18656;50.580;11.392;2022-12-07T04:57:26;13.85;;;6.85;;
32152;SDS011;18656;50.580;11.392;2022-12-07T04:59:53;11.20;;;6.75;;
32152;SDS011;18656;50.580;11.392;2022-12-07T05:02:21;16.40;;;11.68;;
32152;SDS011;18656;50.580;11.392;2022-12-07T05:04:48;19.88;;;12.95;;
32152;SDS011;18656;50.580;11.392;2022-12-07T05:07:15;15.35;;;8.60;;
32152;SDS011;18656;50.580;11.392;2022-12-07T05:09:43;11.63;;;7.75;;
32152;SDS011;18656;50.580;11.392;2022-12-07T05:12:10;13.35;;;7.72;;
32152;SDS011;18656;50.580;11.392;2022-12-07T05:14:37;8.50;;;6.35;;
32152;SDS011;18656;50.580;11.392;2022-12-07T05:17:05;7.78;;;5.97;;
32152;SDS011;18656;50.580;11.392;2022-12-07T05:19:32;11.63;;;6.13;;
32152;SDS011;18656;50.580;11.392;2022-12-07T05:21:59;10.90;;;6.35;;
32152;SDS011;18656;50.580;11.392;2022-12-07T05:24:26;9.43;;;6.75;;
32152;SDS011;18656;50.580;11.392;2022-12-07T05:26:54;6.00;;;4.93;;
32152;SDS011;18656;50.580;11.392;2022-12-07T05:29:21;11.02;;;6.95;;
32152;SDS011;18656;50.580;11.392;2022-12-07T05:31:48;8.65;;;6.80;;
32152;SDS011;18656;50.580;11.392;2022-12-07T05:34:16;6.70;;;5.82;;
32152;SDS011;18656;50.580;11.392;2022-12-07T05:36:43;8.30;;;5.32;;
32152;SDS011;18656;50.580;11.392;2022-12-07T05:39:11;9.38;;;5.65;;
32152;SDS011;18656;50.580;11.392;2022-12-07T05:41:38;14.15;;;7.10;;
32152;SDS011;18656;50.580;11.392;2022-12-07T05:44:24;10.10;;;7.13;;
32152;SDS011;18656;50.580;11.392;2022-12-07T05:46:51;6.32;;;5.32;;
32152;SDS011;18656;50.580;11.392;2022-12-07T05:49:18;10.23;;;6.57;;
32152;SDS011;18656;50.580;11.392;2022-12-07T05:51:45;7.50;;;6.35;;
32152;SDS011;18656;50.580;11.392;2022-12-07T05:54:13;7.22;;;6.53;;
32152;SDS011;18656;50.580;11.392;2022-12-07T05:56:40;8.93;;;7.93;;
32152;SDS011;18656;50.580;11.392;2022-12-07T05:59:07;7.53;;;6.82;;
32152;SDS011;18656;50.580;11.392;2022-12-07T06:04:18;4.28;;;3.90;;
32152;SDS011;18656;50.580;11.392;2022-12-07T06:06:45;5.07;;;4.57;;
32152;SDS011;18656;50.580;11.392;2022-12-07T06:09:12;4.50;;;4.18;;
32152;SDS011;18656;50.580;11.392;2022-12-07T06:11:40;11.68;;;5.55;;
32152;SDS011;18656;50.580;11.392;2022-12-07T06:14:26;9.63;;;5.18;;
32152;SDS011;18656;50.580;11.392;2022-12-07T06:16:54;5.18;;;4.40;;
32152;SDS011;18656;50.580;11.392;2022-12-07T06:19:21;11.68;;;5.53;;
32152;SDS011;18656;50.580;11.392;2022-12-07T06:21:49;5.40;;;4.90;;
32152;SDS011;18656;50.580;11.392;2022-12-07T06:24:16;6.90;;;5.60;;
32152;SDS011;18656;50.580;11.392;2022-12-07T06:26:44;5.78;;;4.68;;
32152;SDS011;18656;50.580;11.392;2022-12-07T06:29:11;6.20;;;4.85;;
32152;SDS011;18656;50.580;11.392;2022-12-07T06:31:39;4.50;;;4.10;;
32152;SDS011;18656;50.580;11.392;2022-12-07T06:34:09;4.43;;;4.03;;
32152;SDS011;18656;50.580;11.392;2022-12-07T06:36:36;4.30;;;3.72;;
32152;SDS011;18656;50.580;11.392;2022-12-07T06:39:04;5.38;;;3.70;;
32152;SDS011;18656;50.580;11.392;2022-12-07T06:41:31;3.67;;;3.28;;
32152;SDS011;18656;50.580;11.392;2022-12-07T06:43:59;3.22;;;2.90;;
32152;SDS011;18656;50.580;11.392;2022-12-07T06:46:26;3.53;;;3.22;;
32152;SDS011;18656;50.580;11.392;2022-12-07T06:48:53;8.50;;;6.82;;
32152;SDS011;18656;50.580;11.392;2022-12-07T06:51:21;11.95;;;9.15;;
32152;SDS011;18656;50.580;11.392;2022-12-07T06:53:48;24.17;;;15.77;;
32152;SDS011;18656;50.580;11.392;2022-12-07T06:56:15;18.48;;;11.35;;
32152;SDS011;18656;50.580;11.392;2022-12-07T06:58:43;7.85;;;6.75;;
32152;SDS011;18656;50.580;11.392;2022-12-07T07:01:10;9.27;;;6.43;;
32152;SDS011;18656;50.580;11.392;2022-12-07T07:03:38;4.38;;;4.07;;
32152;SDS011;18656;50.580;11.392;2022-12-07T07:06:05;3.15;;;2.95;;
32152;SDS011;18656;50.580;11.392;2022-12-07T07:08:34;3.88;;;3.65;;
32152;SDS011;18656;50.580;11.392;2022-12-07T07:11:01;4.43;;;3.28;;
32152;SDS011;18656;50.580;11.392;2022-12-07T07:13:28;3.08;;;2.88;;
32152;SDS011;18656;50.580;11.392;2022-12-07T07:15:56;8.35;;;3.60;;
32152;SDS011;18656;50.580;11.392;2022-12-07T07:18:23;5.20;;;4.35;;
32152;SDS011;18656;50.580;11.392;2022-12-07T07:20:51;6.03;;;3.67;;
32152;SDS011;18656;50.580;11.392;2022-12-07T07:23:18;10.90;;;4.43;;
32152;SDS011;18656;50.580;11.392;2022-12-07T07:25:46;21.10;;;13.75;;
32152;SDS011;18656;50.580;11.392;2022-12-07T07:28:13;15.20;;;10.52;;
32152;SDS011;18656;50.580;11.392;2022-12-07T07:30:40;18.77;;;14.15;;
32152;SDS011;18656;50.580;11.392;2022-12-07T07:33:09;7.05;;;3.83;;
32152;SDS011;18656;50.580;11.392;2022-12-07T07:35:36;14.68;;;6.20;;
32152;SDS011;18656;50.580;11.392;2022-12-07T07:38:04;7.57;;;6.38;;
32152;SDS011;18656;50.580;11.392;2022-12-07T07:40:31;7.25;;;5.10;;
32152;SDS011;18656;50.580;11.392;2022-12-07T07:42:58;4.97;;;4.10;;
32152;SDS011;18656;50.580;11.392;2022-12-07T07:45:26;9.30;;;6.47;;
32152;SDS011;18656;50.580;11.392;2022-12-07T07:47:53;12.80;;;9.30;;
32152;SDS011;18656;50.580;11.392;2022-12-07T07:50:21;6.53;;;5.93;;
32152;SDS011;18656;50.580;11.392;2022-12-07T07:52:49;13.50;;;7.70;;
32152;SDS011;18656;50.580;11.392;2022-12-07T07:55:16;14.98;;;11.75;;
32152;SDS011;18656;50.580;11.392;2022-12-07T07:57:43;10.98;;;7.97;;
32152;SDS011;18656;50.580;11.392;2022-12-07T08:00:19;11.25;;;9.15;;
32152;SDS011;18656;50.580;11.392;2022-12-07T08:02:48;9.38;;;5.25;;
32152;SDS011;18656;50.580;11.392;2022-12-07T08:05:16;5.95;;;4.82;;
32152;SDS011;18656;50.580;11.392;2022-12-07T08:07:43;5.80;;;5.20;;
32152;SDS011;18656;50.580;11.392;2022-12-07T08:10:11;5.95;;;5.35;;
32152;SDS011;18656;50.580;11.392;2022-12-07T08:12:39;9.50;;;5.20;;
32152;SDS011;18656;50.580;11.392;2022-12-07T08:15:27;7.30;;;6.25;;
32152;SDS011;18656;50.580;11.392;2022-12-07T08:17:55;7.57;;;5.25;;
32152;SDS011;18656;50.580;11.392;2022-12-07T08:20:22;6.10;;;5.18;;
32152;SDS011;18656;50.580;11.392;2022-12-07T08:22:49;8.88;;;6.50;;
32152;SDS011;18656;50.580;11.392;2022-12-07T08:25:17;10.27;;;6.75;;
32152;SDS011;18656;50.580;11.392;2022-12-07T08:27:44;16.20;;;8.05;;
32152;SDS011;18656;50.580;11.392;2022-12-07T08:30:11;14.68;;;8.98;;
32152;SDS011;18656;50.580;11.392;2022-12-07T08:32:39;16.23;;;10.45;;
32152;SDS011;18656;50.580;11.392;2022-12-07T08:35:07;10.90;;;8.68;;
32152;SDS011;18656;50.580;11.392;2022-12-07T08:37:35;8.93;;;6.68;;
32152;SDS011;18656;50.580;11.392;2022-12-07T08:40:03;8.68;;;7.03;;
32152;SDS011;18656;50.580;11.392;2022-12-07T08:42:30;10.50;;;6.25;;
32152;SDS011;18656;50.580;11.392;2022-12-07T08:45:07;13.88;;;7.32;;
32152;SDS011;18656;50.580;11.392;2022-12-07T08:47:40;30.58;;;13.55;;
32152;SDS011;18656;50.580;11.392;2022-12-07T08:50:09;59.88;;;26.15;;
32152;SDS011;18656;50.580;11.392;2022-12-07T08:52:37;24.25;;;10.45;;
32152;SDS011;18656;50.580;11.392;2022-12-07T08:55:05;15.30;;;8.07;;
32152;SDS011;18656;50.580;11.392;2022-12-07T08:57:33;12.50;;;6.03;;
32152;SDS011;18656;50.580;11.392;2022-12-07T09:00:02;14.98;;;6.10;;
32152;SDS011;18656;50.580;11.392;2022-12-07T09:02:31;14.15;;;6.15;;
32152;SDS011;18656;50.580;11.392;2022-12-07T09:04:58;10.30;;;5.70;;
32152;SDS011;18656;50.580;11.392;2022-12-07T09:07:25;16.27;;;6.88;;
32152;SDS011;18656;50.580;11.392;2022-12-07T09:09:53;12.13;;;5.45;;
32152;SDS011;18656;50.580;11.392;2022-12-07T09:12:20;11.45;;;5.07;;
32152;SDS011;18656;50.580;11.392;2022-12-07T09:14:47;13.80;;;6.72;;
32152;SDS011;18656;50.580;11.392;2022-12-07T09:17:14;12.32;;;5.70;;
32152;SDS011;18656;50.580;11.392;2022-12-07T09:19:42;13.27;;;5.65;;
32152;SDS011;18656;50.580;11.392;2022-12-07T09:22:09;13.98;;;7.53;;
32152;SDS011;18656;50.580;11.392;2022-12-07T09:24:36;11.68;;;6.38;;
32152;SDS011;18656;50.580;11.392;2022-12-07T09:27:04;14.63;;;7.97;;
32152;SDS011;18656;50.580;11.392;2022-12-07T09:29:31;17.20;;;10.13;;
32152;SDS011;18656;50.580;11.392;2022-12-07T09:31:58;17.20;;;6.65;;
32152;SDS011;18656;50.580;11.392;2022-12-07T09:34:25;12.13;;;6.75;;
32152;SDS011;18656;50.580;11.392;2022-12-07T09:36:53;5.15;;;4.10;;
32152;SDS011;18656;50.580;11.392;2022-12-07T09:39:20;5.90;;;3.75;;
32152;SDS011;18656;50.580;11.392;2022-12-07T09:41:47;6.30;;;3.17;;
32152;SDS011;18656;50.580;11.392;2022-12-07T09:44:20;3.33;;;1.77;;
32152;SDS011;18656;50.580;11.392;2022-12-07T09:46:49;2.95;;;1.67;;
32152;SDS011;18656;50.580;11.392;2022-12-07T09:49:18;1.92;;;1.17;;
32152;SDS011;18656;50.580;11.392;2022-12-07T09:51:46;1.45;;;1.35;;
32152;SDS011;18656;50.580;11.392;2022-12-07T09:54:15;1.30;;;1.00;;
32152;SDS011;18656;50.580;11.392;2022-12-07T09:56:43;3.92;;;1.02;;
32152;SDS011;18656;50.580;11.392;2022-12-07T09:59:12;2.70;;;1.00;;
32152;SDS011;18656;50.580;11.392;2022-12-07T10:01:40;3.88;;;1.45;;
32152;SDS011;18656;50.580;11.392;2022-12-07T10:04:12;2.40;;;1.00;;
32152;SDS011;18656;50.580;11.392;2022-12-07T10:06:41;1.05;;;0.88;;
32152;SDS011;18656;50.580;11.392;2022-12-07T10:09:09;1.48;;;1.20;;
32152;SDS011;18656;50.580;11.392;2022-12-07T10:11:57;4.82;;;1.33;;
32152;SDS011;18656;50.580;11.392;2022-12-07T10:14:24;1.27;;;1.17;;
32152;SDS011;18656;50.580;11.392;2022-12-07T10:17:27;1.38;;;1.27;;
32152;SDS011;18656;50.580;11.392;2022-12-07T10:23:03;1.20;;;1.10;;
32152;SDS011;18656;50.580;11.392;2022-12-07T10:25:32;6.10;;;2.58;;
32152;SDS011;18656;50.580;11.392;2022-12-07T10:30:27;4.45;;;2.22;;
32152;SDS011;18656;50.580;11.392;2022-12-07T10:32:55;5.50;;;2.40;;
32152;SDS011;18656;50.580;11.392;2022-12-07T10:35:24;4.97;;;1.92;;
32152;SDS011;18656;50.580;11.392;2022-12-07T10:37:52;5.38;;;2.28;;
32152;SDS011;18656;50.580;11.392;2022-12-07T10:40:30;4.93;;;2.00;;
32152;SDS011;18656;50.580;11.392;2022-12-07T10:48:34;3.85;;;1.25;;
32152;SDS011;18656;50.580;11.392;2022-12-07T10:51:11;2.90;;;1.20;;
32152;SDS011;18656;50.580;11.392;2022-12-07T10:56:42;1.17;;;1.08;;
32152;SDS011;18656;50.580;11.392;2022-12-07T10:59:21;1.60;;;1.00;;
32152;SDS011;18656;50.580;11.392;2022-12-07T11:04:29;1.08;;;1.00;;
32152;SDS011;18656;50.580;11.392;2022-12-07T11:07:06;1.58;;;1.00;;
32152;SDS011;18656;50.580;11.392;2022-12-07T11:15:26;1.05;;;0.90;;
32152;SDS011;18656;50.580;11.392;2022-12-07T11:20:35;1.35;;;0.70;;
32152;SDS011;18656;50.580;11.392;2022-12-07T11:30:34;1.17;;;0.70;;
32152;SDS011;18656;50.580;11.392;2022-12-07T11:33:10;1.25;;;0.73;;
32152;SDS011;18656;50.580;11.392;2022-12-07T11:38:38;1.40;;;0.60;;
32152;SDS011;18656;50.580;11.392;2022-12-07T11:43:51;0.70;;;0.70;;
32152;SDS011;18656;50.580;11.392;2022-12-07T11:46:19;1.10;;;0.65;;
32152;SDS011;18656;50.580;11.392;2022-12-07T11:48:52;0.95;;;0.82;;
32152;SDS011;18656;50.580;11.392;2022-12-07T11:51:23;0.90;;;0.60;;
32152;SDS011;18656;50.580;11.392;2022-12-07T11:53:59;1.75;;;0.57;;
32152;SDS011;18656;50.580;11.392;2022-12-07T11:56:29;0.60;;;0.60;;
32152;SDS011;18656;50.580;11.392;2022-12-07T11:59:13;0.85;;;0.60;;
32152;SDS011;18656;50.580;11.392;2022-12-07T12:01:48;0.68;;;0.68;;
32152;SDS011;18656;50.580;11.392;2022-12-07T12:04:25;2.40;;;1.20;;
32152;SDS011;18656;50.580;11.392;2022-12-07T12:06:54;1.33;;;0.77;;
32152;SDS011;18656;50.580;11.392;2022-12-07T12:09:24;0.93;;;0.77;;
32152;SDS011;18656;50.580;11.392;2022-12-07T12:15:09;0.95;;;0.95;;
32152;SDS011;18656;50.580;11.392;2022-12-07T12:20:23;0.82;;;0.77;;
32152;SDS011;18656;50.580;11.392;2022-12-07T12:25:23;1.17;;;0.70;;
32152;SDS011;18656;50.580;11.392;2022-12-07T12:27:52;0.90;;;0.90;;
32152;SDS011;18656;50.580;11.392;2022-12-07T12:30:33;0.77;;;0.77;;
32152;SDS011;18656;50.580;11.392;2022-12-07T12:33:05;2.17;;;0.90;;
32152;SDS011;18656;50.580;11.392;2022-12-07T12:35:38;1.10;;;0.70;;
32152;SDS011;18656;50.580;11.392;2022-12-07T12:38:25;2.15;;;0.60;;
32152;SDS011;18656;50.580;11.392;2022-12-07T12:40:54;1.45;;;0.98;;
32152;SDS011;18656;50.580;11.392;2022-12-07T12:48:55;2.78;;;1.50;;
32152;SDS011;18656;50.580;11.392;2022-12-07T12:51:36;1.35;;;0.88;;
32152;SDS011;18656;50.580;11.392;2022-12-07T12:54:04;0.95;;;0.80;;
32152;SDS011;18656;50.580;11.392;2022-12-07T12:56:35;1.10;;;1.00;;
32152;SDS011;18656;50.580;11.392;2022-12-07T12:59:23;1.67;;;0.90;;
32152;SDS011;18656;50.580;11.392;2022-12-07T13:01:53;0.55;;;0.55;;
32152;SDS011;18656;50.580;11.392;2022-12-07T13:04:23;1.48;;;1.08;;
32152;SDS011;18656;50.580;11.392;2022-12-07T13:06:51;1.65;;;0.85;;
32152;SDS011;18656;50.580;11.392;2022-12-07T13:09:37;1.80;;;0.82;;
32152;SDS011;18656;50.580;11.392;2022-12-07T13:12:13;1.38;;;0.73;;
32152;SDS011;18656;50.580;11.392;2022-12-07T13:14:57;8.77;;;0.98;;
32152;SDS011;18656;50.580;11.392;2022-12-07T13:25:51;0.60;;;0.60;;
32152;SDS011;18656;50.580;11.392;2022-12-07T13:27:57;0.55;;;0.55;;
32152;SDS011;18656;50.580;11.392;2022-12-07T13:30:25;2.28;;;0.82;;
32152;SDS011;18656;50.580;11.392;2022-12-07T13:32:54;1.27;;;0.75;;
32152;SDS011;18656;50.580;11.392;2022-12-07T13:37:59;3.45;;;0.80;;
32152;SDS011;18656;50.580;11.392;2022-12-07T13:40:29;1.25;;;0.77;;
32152;SDS011;18656;50.580;11.392;2022-12-07T13:43:00;1.40;;;0.68;;
32152;SDS011;18656;50.580;11.392;2022-12-07T13:45:28;0.95;;;0.60;;
32152;SDS011;18656;50.580;11.392;2022-12-07T13:50:42;1.73;;;1.10;;
32152;SDS011;18656;50.580;11.392;2022-12-07T13:53:12;0.50;;;0.50;;
32152;SDS011;18656;50.580;11.392;2022-12-07T13:55:44;1.70;;;0.77;;
32152;SDS011;18656;50.580;11.392;2022-12-07T13:58:19;2.05;;;0.80;;
32152;SDS011;18656;50.580;11.392;2022-12-07T14:00:46;0.80;;;0.80;;
32152;SDS011;18656;50.580;11.392;2022-12-07T14:05:42;1.88;;;1.10;;
32152;SDS011;18656;50.580;11.392;2022-12-07T14:13:22;1.85;;;0.82;;
32152;SDS011;18656;50.580;11.392;2022-12-07T14:15:51;6.05;;;1.00;;
32152;SDS011;18656;50.580;11.392;2022-12-07T14:18:29;1.27;;;1.00;;
32152;SDS011;18656;50.580;11.392;2022-12-07T14:21:02;1.05;;;0.82;;
32152;SDS011;18656;50.580;11.392;2022-12-07T14:23:30;1.90;;;1.30;;
32152;SDS011;18656;50.580;11.392;2022-12-07T14:28:34;3.47;;;1.02;;
32152;SDS011;18656;50.580;11.392;2022-12-07T14:31:02;1.55;;;1.45;;
32152;SDS011;18656;50.580;11.392;2022-12-07T14:33:29;3.05;;;1.23;;
32152;SDS011;18656;50.580;11.392;2022-12-07T14:35:57;2.70;;;1.58;;
32152;SDS011;18656;50.580;11.392;2022-12-07T14:38:25;2.15;;;1.40;;
32152;SDS011;18656;50.580;11.392;2022-12-07T14:40:52;12.07;;;3.00;;
32152;SDS011;18656;50.580;11.392;2022-12-07T14:43:20;12.77;;;2.25;;
32152;SDS011;18656;50.580;11.392;2022-12-07T14:45:47;5.50;;;1.58;;
32152;SDS011;18656;50.580;11.392;2022-12-07T14:48:15;5.53;;;1.90;;
32152;SDS011;18656;50.580;11.392;2022-12-07T14:51:02;2.53;;;1.15;;
32152;SDS011;18656;50.580;11.392;2022-12-07T14:53:51;3.45;;;2.00;;
32152;SDS011;18656;50.580;11.392;2022-12-07T14:56:23;6.90;;;3.80;;
32152;SDS011;18656;50.580;11.392;2022-12-07T14:58:50;8.45;;;5.43;;
32152;SDS011;18656;50.580;11.392;2022-12-07T15:01:17;5.50;;;4.20;;
32152;SDS011;18656;50.580;11.392;2022-12-07T15:03:45;5.03;;;1.83;;
32152;SDS011;18656;50.580;11.392;2022-12-07T15:06:13;3.55;;;2.47;;
32152;SDS011;18656;50.580;11.392;2022-12-07T15:08:40;2.42;;;2.05;;
32152;SDS011;18656;50.580;11.392;2022-12-07T15:11:13;3.78;;;2.67;;
32152;SDS011;18656;50.580;11.392;2022-12-07T15:13:41;2.65;;;1.88;;
32152;SDS011;18656;50.580;11.392;2022-12-07T15:16:27;1.90;;;1.70;;
32152;SDS011;18656;50.580;11.392;2022-12-07T15:19:15;2.08;;;1.88;;
32152;SDS011;18656;50.580;11.392;2022-12-07T15:21:53;3.50;;;1.73;;
32152;SDS011;18656;50.580;11.392;2022-12-07T15:24:20;1.67;;;1.45;;
32152;SDS011;18656;50.580;11.392;2022-12-07T15:26:48;2.70;;;1.20;;
32152;SDS011;18656;50.580;11.392;2022-12-07T15:29:15;2.92;;;1.58;;
32152;SDS011;18656;50.580;11.392;2022-12-07T15:31:49;1.33;;;1.15;;
32152;SDS011;18656;50.580;11.392;2022-12-07T15:34:25;3.85;;;1.63;;
32152;SDS011;18656;50.580;11.392;2022-12-07T15:37:01;3.35;;;1.45;;
32152;SDS011;18656;50.580;11.392;2022-12-07T15:39:28;1.85;;;0.88;;
32152;SDS011;18656;50.580;11.392;2022-12-07T15:41:55;0.80;;;0.80;;
32152;SDS011;18656;50.580;11.392;2022-12-07T15:44:23;2.65;;;1.50;;
32152;SDS011;18656;50.580;11.392;2022-12-07T15:47:09;2.63;;;2.08;;
32152;SDS011;18656;50.580;11.392;2022-12-07T15:49:36;3.97;;;2.10;;
32152;SDS011;18656;50.580;11.392;2022-12-07T15:52:03;3.03;;;2.22;;
32152;SDS011;18656;50.580;11.392;2022-12-07T15:54:30;10.32;;;3.20;;
32152;SDS011;18656;50.580;11.392;2022-12-07T15:56:58;5.07;;;3.25;;
32152;SDS011;18656;50.580;11.392;2022-12-07T15:59:26;5.95;;;2.45;;
32152;SDS011;18656;50.580;11.392;2022-12-07T16:01:54;3.53;;;2.15;;
32152;SDS011;18656;50.580;11.392;2022-12-07T16:04:21;3.10;;;2.10;;
32152;SDS011;18656;50.580;11.392;2022-12-07T16:06:48;3.00;;;1.73;;
32152;SDS011;18656;50.580;11.392;2022-12-07T16:09:17;2.28;;;1.73;;
32152;SDS011;18656;50.580;11.392;2022-12-07T16:11:45;5.00;;;1.98;;
32152;SDS011;18656;50.580;11.392;2022-12-07T16:14:12;1.77;;;1.67;;
32152;SDS011;18656;50.580;11.392;2022-12-07T16:16:39;4.07;;;3.28;;
32152;SDS011;18656;50.580;11.392;2022-12-07T16:19:08;4.30;;;2.42;;
32152;SDS011;18656;50.580;11.392;2022-12-07T16:21:37;3.25;;;1.77;;
32152;SDS011;18656;50.580;11.392;2022-12-07T16:24:04;2.35;;;1.90;;
32152;SDS011;18656;50.580;11.392;2022-12-07T16:26:31;3.22;;;2.05;;
32152;SDS011;18656;50.580;11.392;2022-12-07T16:28:59;3.55;;;2.55;;
32152;SDS011;18656;50.580;11.392;2022-12-07T16:31:27;2.05;;;1.80;;
32152;SDS011;18656;50.580;11.392;2022-12-07T16:33:55;3.67;;;2.08;;
32152;SDS011;18656;50.580;11.392;2022-12-07T16:36:23;3.00;;;2.15;;